Algood, Tennessee
Current Conditions -  °F | °C
As of 5:55 PM on Saturday 22 Nov 2014 (Local Time) from KSRB Reporting Station
Clear Clear  
Wind Chill: 54°   Ceiling: Unl
Heat Index: 54°   Visibility: 10mi
Dew Point: 36°   Wind: 6mph
Humidity: 51%   Direction: 170°S
Pressure: 30.16"   Gusts: NA
Location:  36.1802°N, 85.4582°W
Report Text: KSRB 222355Z AUTO 17005KT 10SM CLR 12/02 A3016 RMK
Loading
Personal Weather Stations






























Interactive Weather Map New forecast layout! Learn more

10-Day Weather Forecast

Advertisements
Track Severe Weather on mobile